Time;durP1;ratioP1;P1;durP2;ratioP2;P2;SDS_P1;SDS_P2;PMS_P1;PMS_P2;Temp;Humidity;BMP_temperature;BMP_pressure;BME280_temperature;BME280_humidity;BME280_pressure;Samples;Min_cycle;Max_cycle;Signal;HPM_P1;HPM_P2
2022/12/04 00:01:28;;;;;;;58.90;27.27;;;1.30;99.90;;;-141.84;84.20;18531.63;5012410;28;20235;-59
2022/12/04 00:04:00;;;;;;;58.03;27.30;;;1.30;99.90;;;-141.84;84.55;18521.47;5012220;28;20211;-60
2022/12/04 00:06:29;;;;;;;61.00;26.00;;;1.20;99.90;;;-141.84;84.33;18543.81;5012895;28;20198;-59
2022/12/04 00:08:58;;;;;;;59.87;27.23;;;1.30;99.90;;;-141.84;83.89;18509.28;5011885;28;20225;-60
2022/12/04 00:11:30;;;;;;;61.33;27.33;;;1.30;99.90;;;-141.84;84.35;18513.34;5012156;28;20241;-59
2022/12/04 00:14:00;;;;;;;59.60;27.13;;;1.20;99.90;;;-141.84;84.52;18533.66;4998794;28;20750;-60
2022/12/04 00:16:35;;;;;;;60.90;26.97;;;1.20;99.90;;;-141.84;84.32;18527.56;4992427;28;20317;-60
2022/12/04 00:19:04;;;;;;;56.60;26.77;;;1.30;99.90;;;-141.84;84.50;18513.34;4992169;28;20217;-60
2022/12/04 00:21:33;;;;;;;61.97;27.27;;;1.30;99.90;;;-141.84;84.65;18519.44;4992968;28;20199;-60
2022/12/04 00:24:01;;;;;;;64.00;28.03;;;1.30;99.90;;;-141.84;84.50;18525.53;4991827;28;20238;-59
2022/12/04 00:26:30;;;;;;;56.97;28.47;;;1.20;99.90;;;-141.84;84.74;18507.25;4992205;28;20223;-59
2022/12/04 00:28:59;;;;;;;57.40;27.47;;;1.20;99.90;;;-141.84;84.90;18533.66;4991761;28;20297;-59
2022/12/04 00:31:30;;;;;;;60.70;28.17;;;1.20;99.90;;;-141.84;84.60;18553.97;4992072;28;20599;-58
2022/12/04 00:34:00;;;;;;;67.77;27.13;;;1.30;99.90;;;-141.84;84.23;18529.59;4992665;28;20188;-57
2022/12/04 00:36:30;;;;;;;65.37;26.30;;;1.30;99.90;;;-141.84;84.32;18535.69;5012475;28;20191;-59
2022/12/04 00:39:00;;;;;;;62.53;28.03;;;1.30;99.90;;;-141.84;84.58;18491.00;5010998;28;20226;-57
2022/12/04 00:41:32;;;;;;;63.77;27.23;;;1.30;99.90;;;-141.84;84.96;18572.25;5011563;28;20246;-58
2022/12/04 00:44:01;;;;;;;55.97;26.67;;;1.30;99.90;;;-141.84;84.38;18562.09;5007041;28;20223;-59
2022/12/04 00:46:30;;;;;;;62.43;27.17;;;1.40;99.90;;;-141.84;84.46;18535.69;5006573;28;20230;-58
2022/12/04 00:49:01;;;;;;;68.60;29.33;;;1.30;99.90;;;-141.84;84.74;18543.81;4991239;28;20286;-60
2022/12/04 00:51:30;;;;;;;62.17;27.13;;;1.40;99.90;;;-141.84;84.62;18551.94;4991914;28;20569;-59
2022/12/04 00:54:00;;;;;;;60.50;28.83;;;1.40;99.90;;;-141.84;84.22;18549.91;5004517;28;20281;-57
2022/12/04 00:56:29;;;;;;;59.83;27.60;;;1.40;99.90;;;-141.84;83.44;18537.72;5004242;28;20237;-58
2022/12/04 00:59:00;;;;;;;61.40;27.47;;;1.50;99.90;;;-141.84;83.72;18553.97;5011219;28;20238;-59
2022/12/04 01:01:30;;;;;;;62.03;27.83;;;1.40;99.90;;;-141.84;83.49;18509.28;5011412;28;20321;-59
2022/12/04 01:03:59;;;;;;;60.77;27.97;;;1.40;99.90;;;-141.84;83.77;18533.66;5011673;28;20190;-59
2022/12/04 01:06:30;;;;;;;64.63;29.57;;;1.30;99.90;;;-141.84;83.98;18533.66;5011861;28;20256;-60
2022/12/04 01:09:02;;;;;;;72.47;29.17;;;1.40;99.90;;;-141.84;84.00;18527.56;5010854;28;20714;-59
2022/12/04 01:11:32;;;;;;;64.77;28.93;;;1.30;99.90;;;-141.84;84.39;18501.16;5011254;28;20227;-58
2022/12/04 01:14:02;;;;;;;56.33;26.93;;;1.20;99.90;;;-141.84;84.63;18519.44;5002277;28;20243;-57
2022/12/04 01:16:33;;;;;;;70.07;29.97;;;1.30;99.90;;;-141.84;84.69;18517.41;4991504;28;20700;-58
2022/12/04 01:19:05;;;;;;;64.17;29.20;;;1.30;99.90;;;-141.84;84.50;18521.47;4991576;28;20210;-60
2022/12/04 01:21:35;;;;;;;66.83;28.57;;;1.20;99.90;;;-141.84;83.80;18558.03;4992771;28;20195;-58
2022/12/04 01:24:04;;;;;;;62.23;27.80;;;1.40;99.90;;;-141.84;84.07;18537.72;4995065;28;20714;-59
2022/12/04 01:26:32;;;;;;;63.53;28.03;;;1.30;99.90;;;-141.84;84.31;18535.69;4995524;28;20657;-59
2022/12/04 01:29:01;;;;;;;60.27;28.50;;;1.30;99.90;;;-141.84;84.50;18533.66;4995089;28;20230;-58
2022/12/04 01:31:29;;;;;;;60.93;27.67;;;1.30;99.90;;;-141.84;84.03;18533.66;4995085;28;20223;-58
2022/12/04 01:33:57;;;;;;;62.67;29.03;;;1.30;99.90;;;-141.84;83.95;18545.84;4995545;28;20298;-59
2022/12/04 01:36:28;;;;;;;64.53;27.73;;;1.40;99.90;;;-141.84;83.81;18545.84;5015614;28;20202;-59
2022/12/04 01:38:57;;;;;;;64.80;28.67;;;1.40;99.90;;;-141.84;83.76;18517.41;5014544;28;20223;-59
2022/12/04 01:41:28;;;;;;;58.70;28.33;;;1.30;99.90;;;-141.84;83.09;18537.72;5014562;28;20235;-59
2022/12/04 01:44:17;;;;;;;60.20;27.47;;;1.40;99.90;;;-141.84;83.41;18535.69;5006230;28;20278;-59
2022/12/04 01:46:47;;;;;;;65.77;29.73;;;1.40;99.90;;;-141.84;83.45;18517.41;4995097;28;20231;-59
2022/12/04 01:49:23;;;;;;;59.57;27.73;;;1.40;99.90;;;-141.84;83.61;18543.81;4997532;28;20242;-58
2022/12/04 01:52:00;;;;;;;62.53;29.10;;;1.30;99.90;;;-141.84;83.65;18586.50;5015205;28;20190;-58
2022/12/04 01:54:32;;;;;;;58.73;28.83;;;1.30;99.90;;;-141.84;83.45;18537.72;5006973;28;20211;-59
2022/12/04 01:57:06;;;;;;;62.53;28.87;;;1.40;99.90;;;-141.84;83.91;18491.00;5011620;28;20230;-60
2022/12/04 01:59:43;;;;;;;64.43;28.33;;;1.30;99.90;;;-141.84;84.28;18531.63;5014249;28;20229;-60
2022/12/04 02:02:15;;;;;;;63.80;29.30;;;1.30;99.90;;;-141.84;84.25;18547.88;5014743;28;20277;-60
2022/12/04 02:04:44;;;;;;;66.43;28.70;;;1.20;99.90;;;-141.84;84.62;18525.53;5014270;28;20230;-60
2022/12/04 02:07:14;;;;;;;62.23;28.60;;;1.20;99.90;;;-141.84;84.70;18521.47;5014154;28;20210;-60
2022/12/04 02:09:44;;;;;;;62.37;28.80;;;1.20;99.90;;;-141.84;84.51;18535.69;5014863;28;20210;-60
2022/12/04 02:12:24;;;;;;;63.97;28.63;;;1.20;99.90;;;-141.84;84.40;18513.34;5014073;28;20238;-59
2022/12/04 02:15:05;;;;;;;68.73;29.57;;;1.20;99.90;;;-141.84;84.00;18523.50;5014013;28;20234;-59
2022/12/04 02:17:44;;;;;;;64.90;29.83;;;1.30;99.90;;;-141.84;83.77;18537.72;5014099;28;20222;-59
2022/12/04 02:20:30;;;;;;;60.03;29.13;;;1.30;99.90;;;-141.84;83.01;18529.59;5013919;28;20238;-61
2022/12/04 02:23:35;;;;;;;58.53;27.43;;;1.40;99.90;;;-141.84;83.15;18517.41;5013756;28;20281;-60
2022/12/04 02:26:25;;;;;;;64.87;28.93;;;1.40;99.90;;;-141.84;83.63;18543.81;5013732;28;20341;-59
2022/12/04 02:29:02;;;;;;;64.33;30.77;;;1.40;99.90;;;-141.84;83.56;18509.28;5013857;28;20230;-59
2022/12/04 02:31:37;;;;;;;68.27;29.60;;;1.40;99.90;;;-141.84;83.58;18537.72;5013468;28;20221;-60
2022/12/04 02:34:15;;;;;;;70.27;29.90;;;1.30;99.90;;;-141.84;83.69;18523.50;5012443;28;20643;-59
2022/12/04 02:36:52;;;;;;;64.60;30.40;;;1.30;99.90;;;-141.84;83.89;18501.16;5014487;28;20191;-58
2022/12/04 02:39:30;;;;;;;66.90;30.73;;;1.30;99.90;;;-141.84;83.75;18527.56;5013727;28;20655;-59
2022/12/04 02:42:08;;;;;;;60.30;28.93;;;1.40;99.90;;;-141.84;83.46;18539.75;5013413;28;20652;-60
2022/12/04 02:44:45;;;;;;;62.80;29.43;;;1.40;99.90;;;-141.84;83.77;18537.72;5013132;28;20268;-60
2022/12/04 02:47:19;;;;;;;65.47;30.07;;;1.40;99.90;;;-141.84;84.14;18503.19;5013257;28;20627;-59
2022/12/04 02:49:56;;;;;;;64.07;30.33;;;1.30;99.90;;;-141.84;84.05;18525.53;5013159;28;20238;-59
2022/12/04 02:52:32;;;;;;;67.70;30.40;;;1.30;99.90;;;-141.84;83.51;18558.03;5013069;28;20762;-59
2022/12/04 02:55:07;;;;;;;63.33;29.10;;;1.40;99.90;;;-141.84;83.59;18529.59;5012970;28;20222;-59
2022/12/04 02:57:42;;;;;;;64.53;29.20;;;1.40;99.90;;;-141.84;83.87;18505.22;5013976;28;20511;-59
2022/12/04 03:00:15;;;;;;;73.63;30.37;;;1.30;99.90;;;-141.84;83.73;18529.59;5013004;28;20237;-59
2022/12/04 03:02:52;;;;;;;69.13;31.30;;;1.30;99.90;;;-141.84;83.91;18545.84;5013460;28;20231;-59
2022/12/04 03:05:26;;;;;;;70.37;30.57;;;1.40;99.90;;;-141.84;84.40;18519.44;5013018;28;20230;-59
2022/12/04 03:08:00;;;;;;;74.60;31.90;;;1.30;99.90;;;-141.84;84.70;18541.78;5013080;28;20245;-58
2022/12/04 03:10:35;;;;;;;72.37;31.23;;;1.30;99.90;;;-141.84;84.51;18543.81;5012800;28;20713;-57
2022/12/04 03:13:09;;;;;;;67.17;30.80;;;1.30;99.90;;;-141.84;84.12;18539.75;5013262;28;20230;-58
2022/12/04 03:15:45;;;;;;;69.10;31.53;;;1.30;99.90;;;-141.84;84.49;18501.16;5013497;28;20556;-57
2022/12/04 03:18:20;;;;;;;67.50;32.63;;;1.30;99.90;;;-141.84;84.67;18564.13;4994448;28;20237;-60
2022/12/04 03:20:57;;;;;;;67.77;29.93;;;1.20;99.90;;;-141.84;84.80;18509.28;4992955;28;20237;-58
2022/12/04 03:23:34;;;;;;;70.37;31.47;;;1.20;99.90;;;-141.84;84.73;18529.59;4993156;28;20231;-60
2022/12/04 03:26:19;;;;;;;68.40;29.60;;;1.30;99.90;;;-141.84;83.92;18537.72;4993184;28;20566;-60
2022/12/04 03:28:56;;;;;;;70.57;30.20;;;1.30;99.90;;;-141.84;84.35;18549.91;4993392;28;20235;-60
2022/12/04 03:31:39;;;;;;;61.73;29.80;;;1.30;99.90;;;-141.84;84.40;18511.31;4995245;28;20230;-60
2022/12/04 03:34:11;;;;;;;72.57;32.40;;;1.30;99.90;;;-141.84;83.91;18517.41;5012725;28;20191;-60
2022/12/04 03:36:48;;;;;;;66.43;31.63;;;1.40;99.90;;;-141.84;83.68;18568.19;4999265;28;20207;-59
2022/12/04 03:39:25;;;;;;;63.50;29.70;;;1.30;99.90;;;-141.84;84.02;18517.41;4992737;28;20230;-60
2022/12/04 03:42:00;;;;;;;71.17;31.77;;;1.30;99.90;;;-141.84;84.03;18537.72;5008772;28;20230;-58
2022/12/04 03:44:39;;;;;;;71.23;32.87;;;1.40;99.90;;;-141.84;84.19;18515.38;4995300;28;20231;-58
2022/12/04 03:47:16;;;;;;;72.20;32.77;;;1.20;99.90;;;-141.84;84.67;18503.19;4992852;28;20239;-60
2022/12/04 03:49:54;;;;;;;73.93;32.00;;;1.20;99.90;;;-141.84;85.29;18523.50;4992681;28;20718;-58
2022/12/04 03:52:30;;;;;;;75.67;32.53;;;1.20;99.90;;;-141.84;85.00;18529.59;4992447;28;20227;-59
2022/12/04 03:55:05;;;;;;;67.13;30.57;;;1.30;99.90;;;-141.84;85.08;18529.59;4993005;28;20187;-59
2022/12/04 03:57:40;;;;;;;74.83;34.00;;;1.20;99.90;;;-141.84;84.78;18486.94;5012652;28;20240;-59
2022/12/04 04:00:18;;;;;;;76.33;32.97;;;1.30;99.90;;;-141.84;84.12;18529.59;5011916;28;20705;-60
2022/12/04 04:03:01;;;;;;;72.47;32.63;;;1.40;99.90;;;-141.84;83.44;18505.22;5012022;28;20633;-58
2022/12/04 04:05:33;;;;;;;68.30;32.53;;;1.30;99.90;;;-141.84;83.82;18517.41;5011926;28;20718;-58
2022/12/04 04:10:51;;;;;;;74.37;31.30;;;1.40;99.90;;;-141.84;84.16;18517.41;5011912;28;20230;-60
2022/12/04 04:24:50;;;;;;;74.00;33.00;;;1.40;99.90;;;-141.84;84.22;18537.72;5012281;28;20195;-59
2022/12/04 04:27:18;;;;;;;70.70;32.00;;;1.30;99.90;;;-141.84;84.15;18507.25;5011449;28;20233;-59
2022/12/04 04:29:46;;;;;;;79.83;33.57;;;1.30;99.90;;;-141.84;84.68;18513.34;5011610;28;20234;-59
2022/12/04 04:32:36;;;;;;;80.10;33.63;;;1.20;99.90;;;-141.84;83.99;18560.06;5011371;28;20698;-59
2022/12/04 04:35:19;;;;;;;81.37;33.97;;;1.40;99.90;;;-141.84;83.81;18521.47;5011417;28;20273;-58
2022/12/04 04:38:01;;;;;;;72.13;33.90;;;1.40;99.90;;;-141.84;83.81;18505.22;5011129;28;20292;-59
2022/12/04 04:40:41;;;;;;;81.83;34.00;;;1.30;99.90;;;-141.84;84.12;18493.03;5011565;28;20296;-60
2022/12/04 04:43:17;;;;;;;80.17;33.03;;;1.30;99.90;;;-141.84;84.25;18521.47;5009463;28;20201;-58
2022/12/04 04:45:49;;;;;;;76.37;34.90;;;1.30;99.90;;;-141.84;84.09;18523.50;4992474;28;20188;-57
2022/12/04 04:48:25;;;;;;;84.67;35.13;;;1.30;99.90;;;-141.84;83.98;18541.78;4991373;28;20769;-58
2022/12/04 04:50:56;;;;;;;81.27;34.13;;;1.30;99.90;;;-141.84;83.47;18525.53;4991660;28;20277;-57
2022/12/04 04:53:35;;;;;;;75.40;35.17;;;1.40;99.90;;;-141.84;83.66;18545.84;4991510;28;20234;-59
2022/12/04 04:56:06;;;;;;;81.33;34.23;;;1.40;99.90;;;-141.84;84.03;18545.84;4971961;28;20242;-59
2022/12/04 04:58:35;;;;;;;76.13;33.17;;;1.40;99.90;;;-141.84;84.35;18578.38;4972201;28;20224;-60
2022/12/04 05:01:08;;;;;;;81.63;35.43;;;1.30;99.90;;;-141.84;84.79;18539.75;4972182;28;20208;-59
2022/12/04 05:03:36;;;;;;;80.20;35.67;;;1.30;99.90;;;-141.84;84.85;18484.91;4972811;28;20327;-59
2022/12/04 05:06:06;;;;;;;83.40;35.13;;;1.30;99.90;;;-141.84;84.12;18499.13;4972051;28;20302;-58
2022/12/04 05:08:35;;;;;;;77.67;34.27;;;1.40;99.90;;;-141.84;84.11;18517.41;4971925;28;20231;-60
2022/12/04 05:11:04;;;;;;;77.33;33.17;;;1.30;99.90;;;-141.84;84.80;18533.66;4972022;28;20231;-59
2022/12/04 05:13:33;;;;;;;77.00;35.93;;;1.30;99.90;;;-141.84;85.08;18515.38;4980688;28;20227;-59
2022/12/04 05:16:05;;;;;;;80.20;34.77;;;1.20;99.90;;;-141.84;84.81;18503.19;4991319;28;20250;-59
2022/12/04 05:18:35;;;;;;;83.53;35.40;;;1.30;99.90;;;-141.84;84.94;18505.22;4991799;28;20190;-58
2022/12/04 05:21:06;;;;;;;86.23;36.67;;;1.20;99.90;;;-141.84;85.35;18531.63;4991020;28;20242;-59
2022/12/04 05:23:35;;;;;;;77.03;33.77;;;1.20;99.90;;;-141.84;85.44;18521.47;4991116;28;20238;-58
2022/12/04 05:26:05;;;;;;;83.23;37.20;;;1.20;99.90;;;-141.84;85.16;18537.72;4991103;28;20741;-59
2022/12/04 05:28:33;;;;;;;80.00;36.00;;;1.20;99.90;;;-141.84;85.37;18513.34;4990966;28;20235;-58
2022/12/04 05:31:04;;;;;;;79.67;34.47;;;1.20;99.90;;;-141.84;85.30;18505.22;4991136;28;20729;-58
2022/12/04 05:33:32;;;;;;;77.90;36.17;;;1.20;99.90;;;-141.84;85.20;18517.41;4991234;28;20218;-58
2022/12/04 05:36:02;;;;;;;72.80;34.80;;;1.20;99.90;;;-141.84;85.47;18529.59;5008241;28;20241;-58
2022/12/04 05:38:32;;;;;;;75.17;34.50;;;1.20;99.90;;;-141.84;85.71;18511.31;5010938;28;20238;-58
2022/12/04 05:41:04;;;;;;;77.37;35.30;;;1.20;99.90;;;-141.84;85.76;18493.03;5011059;28;20249;-60
2022/12/04 05:43:33;;;;;;;82.67;35.40;;;1.20;99.90;;;-141.84;85.75;18511.31;5001834;28;20227;-57
2022/12/04 05:46:02;;;;;;;81.13;36.80;;;1.20;99.90;;;-141.84;85.52;18456.47;4991868;28;20208;-58
2022/12/04 05:48:30;;;;;;;79.13;33.73;;;1.20;99.90;;;-141.84;85.58;18505.22;5010628;28;20234;-59
2022/12/04 05:50:58;;;;;;;82.17;35.67;;;1.20;99.90;;;-141.84;85.34;18493.03;5010613;28;20231;-59
2022/12/04 05:53:26;;;;;;;84.63;35.83;;;1.30;99.90;;;-141.84;85.13;18513.34;5010432;28;20281;-60
2022/12/04 05:55:58;;;;;;;84.40;37.80;;;1.30;99.90;;;-141.84;85.17;18517.41;4999481;28;20252;-58
2022/12/04 05:58:27;;;;;;;85.30;36.50;;;1.10;99.90;;;-141.84;85.17;18501.16;5010836;28;20230;-59
2022/12/04 06:00:55;;;;;;;79.77;34.87;;;1.20;99.90;;;-141.84;85.36;18511.31;5010579;28;20207;-61
2022/12/04 06:03:24;;;;;;;85.77;35.67;;;1.30;99.90;;;-141.84;85.56;18501.16;5010843;28;20249;-58
2022/12/04 06:05:52;;;;;;;89.47;36.83;;;1.10;99.90;;;-141.84;86.08;18497.09;5010427;28;20266;-59
2022/12/04 06:08:20;;;;;;;79.33;35.93;;;1.20;99.90;;;-141.84;86.04;18517.41;5012351;28;20230;-59
2022/12/04 06:10:48;;;;;;;84.67;37.00;;;1.20;99.90;;;-141.84;85.54;18537.72;5014353;28;20733;-59
2022/12/04 06:13:18;;;;;;;83.03;35.17;;;1.20;99.90;;;-141.84;85.80;18521.47;5011410;28;20344;-58
2022/12/04 06:15:46;;;;;;;80.07;35.73;;;1.20;99.90;;;-141.84;85.89;18474.75;4995081;28;20277;-59
2022/12/04 06:18:14;;;;;;;86.03;37.67;;;1.20;99.90;;;-141.84;85.94;18486.94;4994466;28;20227;-59
2022/12/04 06:20:42;;;;;;;79.93;36.23;;;1.20;99.90;;;-141.84;85.59;18511.31;4994701;28;20665;-56
2022/12/04 06:23:10;;;;;;;75.87;35.43;;;1.20;99.90;;;-141.84;85.52;18521.47;4994354;28;20305;-59
2022/12/04 06:25:38;;;;;;;82.83;36.23;;;1.20;99.90;;;-141.84;85.78;18507.25;4994387;28;20286;-60
2022/12/04 06:28:07;;;;;;;77.10;35.63;;;1.30;99.90;;;-141.84;85.48;18501.16;4995577;28;20277;-59
2022/12/04 06:30:36;;;;;;;76.87;35.93;;;1.30;99.90;;;-141.84;85.45;18515.38;5014514;28;20238;-59
2022/12/04 06:33:04;;;;;;;80.50;36.30;;;1.30;99.90;;;-141.84;85.75;18533.66;4997964;28;20231;-58
2022/12/04 06:35:32;;;;;;;81.87;35.60;;;1.30;99.90;;;-141.84;85.90;18497.09;5007134;28;20234;-58
2022/12/04 06:38:01;;;;;;;80.93;36.73;;;1.20;99.90;;;-141.84;85.96;18541.78;5013810;28;20229;-59
2022/12/04 06:40:29;;;;;;;79.10;36.73;;;1.20;99.90;;;-141.84;85.91;18513.34;5013675;28;20699;-59
2022/12/04 06:42:57;;;;;;;91.50;38.70;;;1.30;99.90;;;-141.84;85.89;18517.41;5009799;28;20211;-58
2022/12/04 06:45:25;;;;;;;87.03;38.50;;;1.30;99.90;;;-141.84;85.84;18509.28;5013866;28;20209;-57
2022/12/04 06:47:55;;;;;;;86.77;37.70;;;1.30;99.90;;;-141.84;85.50;18521.47;4997265;28;20692;-60
2022/12/04 06:50:23;;;;;;;83.07;37.30;;;1.30;99.90;;;-141.84;85.71;18497.09;4993974;28;20286;-59
2022/12/04 06:52:51;;;;;;;84.03;37.97;;;1.30;99.90;;;-141.84;85.75;18531.63;4993615;28;20301;-58
2022/12/04 06:55:19;;;;;;;84.47;37.43;;;1.40;99.90;;;-141.84;85.78;18509.28;4993420;28;20290;-59
2022/12/04 06:57:47;;;;;;;88.40;38.47;;;1.40;99.90;;;-141.84;85.96;18503.19;4994081;28;20559;-59
2022/12/04 07:00:16;;;;;;;84.83;39.13;;;1.30;99.90;;;-141.84;85.55;18533.66;4993442;28;20228;-59
2022/12/04 07:02:44;;;;;;;87.23;40.33;;;1.40;99.90;;;-141.84;85.64;18509.28;4993681;28;20227;-59
2022/12/04 07:05:14;;;;;;;83.70;38.07;;;1.30;99.90;;;-141.84;86.00;18513.34;4993628;28;20250;-58
2022/12/04 07:07:43;;;;;;;91.57;39.40;;;1.30;99.90;;;-141.84;85.91;18476.78;4993423;28;20965;-59
2022/12/04 07:10:12;;;;;;;94.40;39.00;;;1.30;99.90;;;-141.84;85.48;18509.28;4993747;28;20208;-59
2022/12/04 07:12:40;;;;;;;88.50;38.30;;;1.40;99.90;;;-141.84;85.45;18497.09;4994273;28;20265;-58
2022/12/04 07:15:10;;;;;;;80.60;38.07;;;1.30;99.90;;;-141.84;85.72;18488.97;4993037;28;20305;-59
2022/12/04 07:17:38;;;;;;;87.27;38.33;;;1.30;99.90;;;-141.84;86.06;18493.03;4993671;28;20223;-58
2022/12/04 07:20:08;;;;;;;89.50;38.93;;;1.30;99.90;;;-141.84;86.16;18493.03;4992547;28;20773;-59
2022/12/04 07:22:37;;;;;;;88.60;38.90;;;1.30;99.90;;;-141.84;86.12;18493.03;4993250;28;20231;-60
2022/12/04 07:25:06;;;;;;;89.63;40.47;;;1.40;99.90;;;-141.84;85.72;18501.16;4994407;28;20561;-60
2022/12/04 07:27:34;;;;;;;86.37;39.83;;;1.40;99.90;;;-141.84;85.78;18470.69;5013261;28;20222;-59
2022/12/04 07:30:02;;;;;;;87.93;38.73;;;1.40;99.90;;;-141.84;86.00;18525.53;5012483;28;20319;-57
2022/12/04 07:32:30;;;;;;;88.27;39.33;;;1.40;99.90;;;-141.84;86.07;18480.84;5001580;28;20715;-60
2022/12/04 07:34:58;;;;;;;89.40;40.13;;;1.40;99.90;;;-141.84;85.85;18501.16;5001475;28;20222;-59
2022/12/04 07:37:27;;;;;;;87.23;39.77;;;1.40;99.90;;;-141.84;85.52;18505.22;5012637;28;20249;-59
2022/12/04 07:39:56;;;;;;;88.67;39.57;;;1.40;99.90;;;-141.84;85.98;18523.50;5013076;28;20203;-58
2022/12/04 07:42:25;;;;;;;90.93;39.87;;;1.40;99.90;;;-141.84;86.02;18480.84;5012856;28;20227;-57
2022/12/04 07:44:53;;;;;;;84.17;36.73;;;1.40;99.90;;;-141.84;86.10;18468.66;4989005;28;20363;-59
2022/12/04 07:47:21;;;;;;;94.93;39.73;;;1.70;99.90;;;-141.84;86.16;18537.72;4992684;28;20769;-58
2022/12/04 07:49:49;;;;;;;92.10;40.70;;;1.40;99.90;;;-141.84;85.97;18513.34;4992623;28;20235;-59
2022/12/04 07:52:17;;;;;;;89.23;39.73;;;1.50;99.90;;;-141.84;85.54;18499.13;4992496;28;20242;-59
2022/12/04 07:54:45;;;;;;;89.67;39.50;;;1.40;99.90;;;-141.84;85.26;18511.31;5002731;28;20203;-58
2022/12/04 07:57:15;;;;;;;94.80;41.13;;;1.40;99.90;;;-141.84;85.58;18497.09;5012108;28;20230;-60
2022/12/04 07:59:43;;;;;;;100.57;40.27;;;1.40;99.90;;;-141.84;85.67;18523.50;5011952;28;20227;-59
2022/12/04 08:02:12;;;;;;;93.20;40.07;;;1.50;99.90;;;-141.84;85.81;18497.09;5009650;28;20605;-59
2022/12/04 08:04:40;;;;;;;86.50;39.97;;;1.50;99.90;;;-141.84;85.56;18493.03;5012303;28;20257;-60
2022/12/04 08:07:09;;;;;;;79.33;36.10;;;1.50;99.90;;;-141.84;85.71;18513.34;5012031;28;20213;-61
2022/12/04 08:09:37;;;;;;;89.07;41.07;;;1.50;99.90;;;-141.84;85.89;18462.56;5012250;28;20233;-59
2022/12/04 08:12:05;;;;;;;89.60;40.90;;;1.50;99.90;;;-141.84;86.03;18523.50;5012014;28;20722;-59
2022/12/04 08:14:35;;;;;;;92.23;40.70;;;1.50;99.90;;;-141.84;85.57;18484.91;4998571;28;20234;-59
2022/12/04 08:17:03;;;;;;;95.17;39.33;;;1.60;99.90;;;-141.84;85.48;18511.31;4991858;28;20699;-58
2022/12/04 08:19:31;;;;;;;97.73;41.17;;;1.60;99.90;;;-141.84;85.86;18495.06;4992648;28;20706;-60
2022/12/04 08:21:59;;;;;;;96.40;39.77;;;1.50;99.90;;;-141.84;85.90;18505.22;4993428;28;20207;-58
2022/12/04 08:24:28;;;;;;;92.47;40.40;;;1.50;99.90;;;-141.84;86.22;18517.41;5012770;28;20222;-58
2022/12/04 08:26:56;;;;;;;87.83;39.43;;;1.50;99.90;;;-141.84;86.49;18511.31;5012143;28;20284;-58
2022/12/04 08:29:24;;;;;;;94.43;40.37;;;1.50;99.90;;;-141.84;86.31;18493.03;5011930;28;20246;-59
2022/12/04 08:31:53;;;;;;;90.80;39.97;;;1.50;99.90;;;-141.84;86.25;18513.34;5005137;28;20219;-59
2022/12/04 08:34:22;;;;;;;91.30;42.23;;;1.60;99.90;;;-141.84;86.16;18509.28;4996267;28;20234;-60
2022/12/04 08:36:50;;;;;;;102.47;40.17;;;1.50;99.90;;;-141.84;86.25;18488.97;5012310;28;20702;-59
2022/12/04 08:39:18;;;;;;;93.07;39.93;;;1.60;99.90;;;-141.84;85.91;18523.50;5011590;28;20246;-60
2022/12/04 08:41:46;;;;;;;90.20;40.80;;;1.70;99.90;;;-141.84;85.83;18497.09;5011951;28;20594;-59
2022/12/04 08:44:19;;;;;;;97.37;40.70;;;1.50;99.90;;;-141.84;86.10;18503.19;5007582;28;20292;-60
2022/12/04 08:46:47;;;;;;;101.67;40.37;;;1.50;99.90;;;-141.84;85.79;18531.63;5004397;28;20278;-59
2022/12/04 08:49:17;;;;;;;91.30;39.43;;;1.50;99.90;;;-141.84;86.16;18491.00;4991146;28;20247;-59
2022/12/04 08:51:45;;;;;;;89.00;39.77;;;1.40;99.90;;;-141.84;86.00;18505.22;4991823;28;20680;-59
2022/12/04 08:54:15;;;;;;;92.30;41.07;;;1.50;99.90;;;-141.84;85.81;18497.09;4991318;28;20219;-60
2022/12/04 08:56:43;;;;;;;96.53;40.73;;;1.50;99.90;;;-141.84;85.88;18517.41;4991845;28;20227;-60
2022/12/04 08:59:13;;;;;;;94.73;40.47;;;1.60;99.90;;;-141.84;84.97;18515.38;4991413;28;20235;-59
2022/12/04 09:01:41;;;;;;;86.37;40.10;;;1.60;99.90;;;-141.84;84.58;18495.06;4991322;28;20242;-60
2022/12/04 09:04:09;;;;;;;85.13;39.10;;;1.70;99.90;;;-141.84;84.71;18478.81;4991597;28;20207;-60
2022/12/04 09:06:39;;;;;;;89.40;40.73;;;1.70;99.90;;;-141.84;84.65;18505.22;4991836;28;20679;-60
2022/12/04 09:09:07;;;;;;;82.77;36.93;;;1.60;99.90;;;-141.84;84.89;18525.53;4991362;28;20239;-61
2022/12/04 09:11:35;;;;;;;88.47;39.87;;;1.70;99.90;;;-141.84;84.96;18531.63;4990642;28;20231;-60
2022/12/04 09:14:04;;;;;;;87.70;40.43;;;1.60;99.90;;;-141.84;84.73;18515.38;4997288;28;20246;-60
2022/12/04 09:16:32;;;;;;;88.47;39.07;;;1.70;99.90;;;-141.84;84.92;18476.78;5006036;28;20223;-60
2022/12/04 09:19:00;;;;;;;94.30;39.33;;;1.60;99.90;;;-141.84;84.58;18529.59;4992391;28;20649;-60
2022/12/04 09:21:29;;;;;;;85.00;38.23;;;1.60;99.90;;;-141.84;84.78;18529.59;5011115;28;20598;-60
2022/12/04 09:23:59;;;;;;;89.93;40.40;;;1.60;99.90;;;-141.84;84.70;18507.25;5010698;28;20248;-60
2022/12/04 09:26:32;;;;;;;96.87;40.37;;;1.70;99.90;;;-141.84;84.88;18531.63;5010781;28;20231;-60
2022/12/04 09:29:03;;;;;;;84.40;38.97;;;1.60;99.90;;;-141.84;84.99;18497.09;5010540;28;20698;-59
2022/12/04 09:31:32;;;;;;;92.77;39.87;;;1.70;99.90;;;-141.84;84.49;18513.34;5007658;28;20238;-60
2022/12/04 09:34:01;;;;;;;89.47;40.03;;;1.70;99.90;;;-141.84;84.32;18517.41;4992340;28;20203;-60
2022/12/04 09:36:30;;;;;;;94.27;40.77;;;1.70;99.90;;;-141.84;84.23;18531.63;5011430;28;20276;-60
2022/12/04 09:38:59;;;;;;;89.73;39.50;;;1.80;99.90;;;-141.84;84.63;18525.53;4994007;28;20230;-61
2022/12/04 09:42:05;;;;;;;89.53;40.27;;;1.70;99.90;;;-141.84;84.69;18499.13;4990835;28;20223;-60
2022/12/04 09:44:36;;;;;;;91.80;40.30;;;1.70;99.90;;;-141.84;85.25;18517.41;4994916;28;20727;-60
2022/12/04 09:47:11;;;;;;;92.67;41.07;;;1.70;99.90;;;-141.84;85.05;18507.25;4995236;28;20235;-60
2022/12/04 09:49:46;;;;;;;100.50;40.63;;;1.70;99.90;;;-141.84;85.01;18509.28;4994808;28;20245;-60
2022/12/04 09:52:30;;;;;;;97.87;40.07;;;1.70;99.90;;;-141.84;85.07;18519.44;4995074;28;20191;-61
2022/12/04 09:55:03;;;;;;;89.87;39.87;;;1.70;99.90;;;-141.84;85.36;18523.50;4995035;28;20199;-61
2022/12/04 09:57:40;;;;;;;97.27;40.83;;;1.70;99.90;;;-141.84;85.47;18541.78;4995019;28;20664;-61
2022/12/04 10:00:15;;;;;;;97.83;40.20;;;1.60;99.90;;;-141.84;85.13;18547.88;4994712;28;20223;-61
2022/12/04 10:02:50;;;;;;;88.27;39.00;;;1.70;99.90;;;-141.84;85.16;18503.19;4994738;28;20230;-60
2022/12/04 10:05:35;;;;;;;83.33;39.97;;;1.70;99.90;;;-141.84;85.10;18527.56;4994491;28;20647;-61
2022/12/04 10:08:17;;;;;;;92.47;40.87;;;1.60;99.90;;;-141.84;85.09;18497.09;4994382;28;20252;-59
2022/12/04 10:11:03;;;;;;;93.60;39.83;;;1.70;99.90;;;-141.84;85.50;18482.88;4994501;28;20246;-61
2022/12/04 10:14:02;;;;;;;88.23;39.70;;;1.70;99.90;;;-141.84;84.75;18497.09;4994318;28;20222;-61
2022/12/04 10:16:55;;;;;;;95.80;39.90;;;1.70;99.90;;;-141.84;84.47;18503.19;4994652;28;20227;-61
2022/12/04 10:19:38;;;;;;;92.77;39.87;;;1.80;99.90;;;-141.84;84.44;18521.47;4994737;28;20239;-62
2022/12/04 10:22:18;;;;;;;91.73;39.53;;;1.80;99.90;;;-141.84;84.22;18517.41;4994572;28;20195;-59
2022/12/04 10:24:52;;;;;;;92.70;39.80;;;1.80;99.90;;;-141.84;84.39;18537.72;4994709;28;20196;-61
2022/12/04 10:27:30;;;;;;;94.00;40.03;;;1.80;99.90;;;-141.84;84.37;18509.28;5013965;28;20736;-59
2022/12/04 10:30:07;;;;;;;90.00;40.17;;;1.80;99.90;;;-141.84;84.45;18527.56;5013660;28;20238;-61
2022/12/04 10:32:37;;;;;;;93.53;40.47;;;1.80;99.90;;;-141.84;85.00;18513.34;5025800;28;20226;-62
2022/12/04 10:35:21;;;;;;;94.83;39.37;;;1.80;99.90;;;-141.84;85.13;18493.03;5032998;28;20237;-59